sensor_id;sensor_type;location;lat;lon;timestamp;P1;durP1;ratioP1;P2;durP2;ratioP2
17141;SDS011;32805;53.556;9.944;2022-10-31T00:01:23;23.60;;;14.90;;
17141;SDS011;32805;53.556;9.944;2022-10-31T00:03:53;24.10;;;14.80;;
17141;SDS011;32805;53.556;9.944;2022-10-31T00:06:21;23.15;;;14.70;;
17141;SDS011;32805;53.556;9.944;2022-10-31T00:08:51;18.08;;;13.60;;
17141;SDS011;32805;53.556;9.944;2022-10-31T00:11:22;20.23;;;13.30;;
17141;SDS011;32805;53.556;9.944;2022-10-31T00:13:50;20.40;;;14.45;;
17141;SDS011;32805;53.556;9.944;2022-10-31T00:16:19;20.88;;;15.43;;
17141;SDS011;32805;53.556;9.944;2022-10-31T00:18:48;27.05;;;15.68;;
17141;SDS011;32805;53.556;9.944;2022-10-31T00:21:17;23.55;;;16.20;;
17141;SDS011;32805;53.556;9.944;2022-10-31T00:23:45;22.52;;;15.48;;
17141;SDS011;32805;53.556;9.944;2022-10-31T00:26:13;20.48;;;15.10;;
17141;SDS011;32805;53.556;9.944;2022-10-31T00:28:42;24.27;;;15.80;;
17141;SDS011;32805;53.556;9.944;2022-10-31T00:31:10;20.52;;;15.73;;
17141;SDS011;32805;53.556;9.944;2022-10-31T00:33:39;24.08;;;15.00;;
17141;SDS011;32805;53.556;9.944;2022-10-31T00:36:10;26.63;;;15.60;;
17141;SDS011;32805;53.556;9.944;2022-10-31T00:38:42;26.90;;;14.98;;
17141;SDS011;32805;53.556;9.944;2022-10-31T00:41:11;22.83;;;14.13;;
17141;SDS011;32805;53.556;9.944;2022-10-31T00:43:40;26.85;;;16.75;;
17141;SDS011;32805;53.556;9.944;2022-10-31T00:46:09;22.13;;;13.93;;
17141;SDS011;32805;53.556;9.944;2022-10-31T00:48:37;21.45;;;15.48;;
17141;SDS011;32805;53.556;9.944;2022-10-31T00:51:05;22.15;;;15.63;;
17141;SDS011;32805;53.556;9.944;2022-10-31T00:53:33;19.50;;;15.07;;
17141;SDS011;32805;53.556;9.944;2022-10-31T00:56:01;24.88;;;16.02;;
17141;SDS011;32805;53.556;9.944;2022-10-31T00:58:29;21.80;;;16.45;;
17141;SDS011;32805;53.556;9.944;2022-10-31T01:00:58;21.85;;;15.43;;
17141;SDS011;32805;53.556;9.944;2022-10-31T01:03:27;20.60;;;13.95;;
17141;SDS011;32805;53.556;9.944;2022-10-31T01:05:57;30.25;;;16.67;;
17141;SDS011;32805;53.556;9.944;2022-10-31T01:08:26;25.13;;;16.65;;
17141;SDS011;32805;53.556;9.944;2022-10-31T01:10:58;25.40;;;15.75;;
17141;SDS011;32805;53.556;9.944;2022-10-31T01:13:27;23.23;;;15.15;;
17141;SDS011;32805;53.556;9.944;2022-10-31T01:15:55;28.15;;;17.50;;
17141;SDS011;32805;53.556;9.944;2022-10-31T01:18:26;18.55;;;14.23;;
17141;SDS011;32805;53.556;9.944;2022-10-31T01:21:01;25.58;;;16.90;;
17141;SDS011;32805;53.556;9.944;2022-10-31T01:23:30;24.35;;;14.80;;
17141;SDS011;32805;53.556;9.944;2022-10-31T01:26:02;21.98;;;16.35;;
17141;SDS011;32805;53.556;9.944;2022-10-31T01:28:32;26.80;;;15.40;;
17141;SDS011;32805;53.556;9.944;2022-10-31T01:31:01;26.95;;;17.75;;
17141;SDS011;32805;53.556;9.944;2022-10-31T01:33:31;21.65;;;15.18;;
17141;SDS011;32805;53.556;9.944;2022-10-31T01:35:59;25.83;;;16.60;;
17141;SDS011;32805;53.556;9.944;2022-10-31T01:38:27;29.83;;;19.00;;
17141;SDS011;32805;53.556;9.944;2022-10-31T01:40:54;26.90;;;17.10;;
17141;SDS011;32805;53.556;9.944;2022-10-31T01:43:22;24.63;;;17.45;;
17141;SDS011;32805;53.556;9.944;2022-10-31T01:45:51;24.10;;;17.20;;
17141;SDS011;32805;53.556;9.944;2022-10-31T01:48:22;28.98;;;17.45;;
17141;SDS011;32805;53.556;9.944;2022-10-31T01:50:55;27.98;;;17.08;;
17141;SDS011;32805;53.556;9.944;2022-10-31T01:53:23;28.02;;;18.73;;
17141;SDS011;32805;53.556;9.944;2022-10-31T01:55:52;25.58;;;17.58;;
17141;SDS011;32805;53.556;9.944;2022-10-31T01:58:21;29.35;;;18.52;;
17141;SDS011;32805;53.556;9.944;2022-10-31T02:00:53;27.75;;;17.80;;
17141;SDS011;32805;53.556;9.944;2022-10-31T02:03:27;24.70;;;17.73;;
17141;SDS011;32805;53.556;9.944;2022-10-31T02:05:58;27.40;;;17.35;;
17141;SDS011;32805;53.556;9.944;2022-10-31T02:08:27;27.58;;;18.00;;
17141;SDS011;32805;53.556;9.944;2022-10-31T02:10:56;26.60;;;16.52;;
17141;SDS011;32805;53.556;9.944;2022-10-31T02:13:25;35.67;;;20.98;;
17141;SDS011;32805;53.556;9.944;2022-10-31T02:15:55;30.95;;;18.42;;
17141;SDS011;32805;53.556;9.944;2022-10-31T02:18:24;31.27;;;17.63;;
17141;SDS011;32805;53.556;9.944;2022-10-31T02:20:57;30.02;;;19.98;;
17141;SDS011;32805;53.556;9.944;2022-10-31T02:23:43;27.15;;;18.30;;
17141;SDS011;32805;53.556;9.944;2022-10-31T02:26:38;35.22;;;21.52;;
17141;SDS011;32805;53.556;9.944;2022-10-31T02:29:24;30.38;;;20.65;;
17141;SDS011;32805;53.556;9.944;2022-10-31T02:32:10;31.05;;;19.65;;
17141;SDS011;32805;53.556;9.944;2022-10-31T02:34:45;32.15;;;21.77;;
17141;SDS011;32805;53.556;9.944;2022-10-31T02:37:21;31.35;;;22.08;;
17141;SDS011;32805;53.556;9.944;2022-10-31T02:39:53;31.63;;;21.38;;
17141;SDS011;32805;53.556;9.944;2022-10-31T02:42:46;32.35;;;20.02;;
17141;SDS011;32805;53.556;9.944;2022-10-31T02:45:20;25.40;;;18.27;;
17141;SDS011;32805;53.556;9.944;2022-10-31T02:47:55;30.27;;;18.88;;
17141;SDS011;32805;53.556;9.944;2022-10-31T02:50:28;32.30;;;23.00;;
17141;SDS011;32805;53.556;9.944;2022-10-31T02:53:01;37.00;;;23.05;;
17141;SDS011;32805;53.556;9.944;2022-10-31T02:55:46;37.42;;;23.52;;
17141;SDS011;32805;53.556;9.944;2022-10-31T02:58:19;39.25;;;23.55;;
17141;SDS011;32805;53.556;9.944;2022-10-31T03:00:55;35.53;;;21.92;;
17141;SDS011;32805;53.556;9.944;2022-10-31T03:03:46;34.65;;;22.75;;
17141;SDS011;32805;53.556;9.944;2022-10-31T03:06:34;37.50;;;23.08;;
17141;SDS011;32805;53.556;9.944;2022-10-31T03:09:09;38.05;;;23.10;;
17141;SDS011;32805;53.556;9.944;2022-10-31T03:11:45;36.67;;;23.65;;
17141;SDS011;32805;53.556;9.944;2022-10-31T03:14:21;35.25;;;22.83;;
17141;SDS011;32805;53.556;9.944;2022-10-31T03:16:57;34.90;;;23.63;;
17141;SDS011;32805;53.556;9.944;2022-10-31T03:19:31;37.63;;;23.33;;
17141;SDS011;32805;53.556;9.944;2022-10-31T03:22:02;33.08;;;21.65;;
17141;SDS011;32805;53.556;9.944;2022-10-31T03:24:34;38.38;;;24.27;;
17141;SDS011;32805;53.556;9.944;2022-10-31T03:27:04;36.38;;;23.40;;
17141;SDS011;32805;53.556;9.944;2022-10-31T03:29:36;38.03;;;24.65;;
17141;SDS011;32805;53.556;9.944;2022-10-31T03:32:06;36.17;;;23.08;;
17141;SDS011;32805;53.556;9.944;2022-10-31T03:34:39;35.67;;;23.00;;
17141;SDS011;32805;53.556;9.944;2022-10-31T03:37:10;38.38;;;22.90;;
17141;SDS011;32805;53.556;9.944;2022-10-31T03:39:42;38.92;;;23.45;;
17141;SDS011;32805;53.556;9.944;2022-10-31T03:42:12;38.13;;;23.55;;
17141;SDS011;32805;53.556;9.944;2022-10-31T03:44:44;39.50;;;24.13;;
17141;SDS011;32805;53.556;9.944;2022-10-31T03:47:14;38.55;;;24.35;;
17141;SDS011;32805;53.556;9.944;2022-10-31T03:49:44;37.40;;;23.35;;
17141;SDS011;32805;53.556;9.944;2022-10-31T03:52:13;43.03;;;23.10;;
17141;SDS011;32805;53.556;9.944;2022-10-31T03:54:51;39.97;;;24.33;;
17141;SDS011;32805;53.556;9.944;2022-10-31T03:57:22;39.95;;;23.23;;
17141;SDS011;32805;53.556;9.944;2022-10-31T03:59:55;35.97;;;23.00;;
17141;SDS011;32805;53.556;9.944;2022-10-31T04:02:29;40.10;;;23.70;;
17141;SDS011;32805;53.556;9.944;2022-10-31T04:05:00;39.78;;;23.55;;
17141;SDS011;32805;53.556;9.944;2022-10-31T04:07:30;42.72;;;24.42;;
17141;SDS011;32805;53.556;9.944;2022-10-31T04:10:02;40.47;;;26.00;;
17141;SDS011;32805;53.556;9.944;2022-10-31T04:12:34;43.85;;;25.50;;
17141;SDS011;32805;53.556;9.944;2022-10-31T04:15:20;39.22;;;24.15;;
17141;SDS011;32805;53.556;9.944;2022-10-31T04:17:50;53.30;;;26.27;;
17141;SDS011;32805;53.556;9.944;2022-10-31T04:20:30;44.95;;;26.35;;
17141;SDS011;32805;53.556;9.944;2022-10-31T04:22:59;45.92;;;25.80;;
17141;SDS011;32805;53.556;9.944;2022-10-31T04:25:28;41.55;;;24.27;;
17141;SDS011;32805;53.556;9.944;2022-10-31T04:27:56;41.35;;;25.63;;
17141;SDS011;32805;53.556;9.944;2022-10-31T04:30:25;46.70;;;25.42;;
17141;SDS011;32805;53.556;9.944;2022-10-31T04:32:53;34.92;;;20.60;;
17141;SDS011;32805;53.556;9.944;2022-10-31T04:35:21;35.58;;;21.38;;
17141;SDS011;32805;53.556;9.944;2022-10-31T04:37:50;41.88;;;24.08;;
17141;SDS011;32805;53.556;9.944;2022-10-31T04:40:18;40.00;;;24.98;;
17141;SDS011;32805;53.556;9.944;2022-10-31T04:43:04;45.67;;;24.58;;
17141;SDS011;32805;53.556;9.944;2022-10-31T04:45:32;40.10;;;24.75;;
17141;SDS011;32805;53.556;9.944;2022-10-31T04:48:00;44.72;;;25.63;;
17141;SDS011;32805;53.556;9.944;2022-10-31T04:50:32;42.50;;;25.55;;
17141;SDS011;32805;53.556;9.944;2022-10-31T04:53:02;50.42;;;27.02;;
17141;SDS011;32805;53.556;9.944;2022-10-31T04:55:37;49.50;;;27.08;;
17141;SDS011;32805;53.556;9.944;2022-10-31T04:58:16;38.63;;;24.23;;
17141;SDS011;32805;53.556;9.944;2022-10-31T05:00:44;47.78;;;26.20;;
17141;SDS011;32805;53.556;9.944;2022-10-31T05:03:13;44.05;;;25.35;;
17141;SDS011;32805;53.556;9.944;2022-10-31T05:05:41;44.30;;;26.17;;
17141;SDS011;32805;53.556;9.944;2022-10-31T05:08:10;36.00;;;21.10;;
17141;SDS011;32805;53.556;9.944;2022-10-31T05:10:37;47.00;;;26.90;;
17141;SDS011;32805;53.556;9.944;2022-10-31T05:13:05;41.33;;;26.50;;
17141;SDS011;32805;53.556;9.944;2022-10-31T05:16:02;45.95;;;26.35;;
17141;SDS011;32805;53.556;9.944;2022-10-31T05:18:49;46.38;;;24.70;;
17141;SDS011;32805;53.556;9.944;2022-10-31T05:21:34;45.63;;;24.90;;
17141;SDS011;32805;53.556;9.944;2022-10-31T05:24:04;45.13;;;25.38;;
17141;SDS011;32805;53.556;9.944;2022-10-31T05:26:33;42.55;;;25.13;;
17141;SDS011;32805;53.556;9.944;2022-10-31T05:29:01;42.60;;;25.38;;
17141;SDS011;32805;53.556;9.944;2022-10-31T05:31:29;46.13;;;23.75;;
17141;SDS011;32805;53.556;9.944;2022-10-31T05:33:56;48.22;;;24.85;;
17141;SDS011;32805;53.556;9.944;2022-10-31T05:36:42;43.90;;;25.70;;
17141;SDS011;32805;53.556;9.944;2022-10-31T05:39:15;45.13;;;26.02;;
17141;SDS011;32805;53.556;9.944;2022-10-31T05:41:46;44.53;;;25.75;;
17141;SDS011;32805;53.556;9.944;2022-10-31T05:44:26;44.70;;;23.35;;
17141;SDS011;32805;53.556;9.944;2022-10-31T05:47:07;53.95;;;26.80;;
17141;SDS011;32805;53.556;9.944;2022-10-31T05:49:54;49.08;;;24.63;;
17141;SDS011;32805;53.556;9.944;2022-10-31T05:52:40;42.67;;;23.05;;
17141;SDS011;32805;53.556;9.944;2022-10-31T05:55:30;48.95;;;25.42;;
17141;SDS011;32805;53.556;9.944;2022-10-31T05:58:10;49.03;;;25.50;;
17141;SDS011;32805;53.556;9.944;2022-10-31T06:00:42;41.40;;;23.35;;
17141;SDS011;32805;53.556;9.944;2022-10-31T06:03:11;47.60;;;25.02;;
17141;SDS011;32805;53.556;9.944;2022-10-31T06:05:46;62.70;;;24.70;;
17141;SDS011;32805;53.556;9.944;2022-10-31T06:08:21;42.85;;;23.23;;
17141;SDS011;32805;53.556;9.944;2022-10-31T06:10:51;48.95;;;25.45;;
17141;SDS011;32805;53.556;9.944;2022-10-31T06:13:29;43.13;;;23.00;;
17141;SDS011;32805;53.556;9.944;2022-10-31T06:16:11;41.40;;;23.02;;
17141;SDS011;32805;53.556;9.944;2022-10-31T06:18:39;42.42;;;21.77;;
17141;SDS011;32805;53.556;9.944;2022-10-31T06:21:08;41.67;;;23.10;;
17141;SDS011;32805;53.556;9.944;2022-10-31T06:23:40;42.15;;;23.58;;
17141;SDS011;32805;53.556;9.944;2022-10-31T06:26:35;35.10;;;20.58;;
17141;SDS011;32805;53.556;9.944;2022-10-31T06:29:02;39.70;;;22.25;;
17141;SDS011;32805;53.556;9.944;2022-10-31T06:31:53;38.35;;;21.83;;
17141;SDS011;32805;53.556;9.944;2022-10-31T06:34:21;39.17;;;23.00;;
17141;SDS011;32805;53.556;9.944;2022-10-31T06:36:49;43.10;;;21.83;;
17141;SDS011;32805;53.556;9.944;2022-10-31T06:39:20;28.48;;;18.58;;
17141;SDS011;32805;53.556;9.944;2022-10-31T06:41:49;35.15;;;21.08;;
17141;SDS011;32805;53.556;9.944;2022-10-31T06:44:19;30.70;;;18.63;;
17141;SDS011;32805;53.556;9.944;2022-10-31T06:46:52;44.47;;;22.25;;
17141;SDS011;32805;53.556;9.944;2022-10-31T06:49:40;38.08;;;21.85;;
17141;SDS011;32805;53.556;9.944;2022-10-31T06:52:12;34.85;;;19.02;;
17141;SDS011;32805;53.556;9.944;2022-10-31T06:54:40;33.05;;;18.67;;
17141;SDS011;32805;53.556;9.944;2022-10-31T06:57:09;34.08;;;19.80;;
17141;SDS011;32805;53.556;9.944;2022-10-31T06:59:38;36.10;;;20.77;;
17141;SDS011;32805;53.556;9.944;2022-10-31T07:02:07;31.35;;;18.73;;
17141;SDS011;32805;53.556;9.944;2022-10-31T07:04:37;25.77;;;18.33;;
17141;SDS011;32805;53.556;9.944;2022-10-31T07:07:05;33.70;;;21.52;;
17141;SDS011;32805;53.556;9.944;2022-10-31T07:09:34;30.08;;;18.38;;
17141;SDS011;32805;53.556;9.944;2022-10-31T07:12:03;31.15;;;19.63;;
17141;SDS011;32805;53.556;9.944;2022-10-31T07:14:37;23.25;;;16.67;;
17141;SDS011;32805;53.556;9.944;2022-10-31T07:17:05;29.92;;;17.77;;
17141;SDS011;32805;53.556;9.944;2022-10-31T07:19:39;25.85;;;17.27;;
17141;SDS011;32805;53.556;9.944;2022-10-31T07:22:08;21.65;;;14.23;;
17141;SDS011;32805;53.556;9.944;2022-10-31T07:24:38;24.10;;;14.55;;
17141;SDS011;32805;53.556;9.944;2022-10-31T07:27:28;23.25;;;15.60;;
17141;SDS011;32805;53.556;9.944;2022-10-31T07:30:10;21.52;;;13.55;;
17141;SDS011;32805;53.556;9.944;2022-10-31T07:32:40;27.05;;;14.50;;
17141;SDS011;32805;53.556;9.944;2022-10-31T07:35:12;22.52;;;15.48;;
17141;SDS011;32805;53.556;9.944;2022-10-31T07:37:45;19.55;;;14.68;;
17141;SDS011;32805;53.556;9.944;2022-10-31T07:40:14;23.40;;;14.88;;
17141;SDS011;32805;53.556;9.944;2022-10-31T07:42:44;27.70;;;14.80;;
17141;SDS011;32805;53.556;9.944;2022-10-31T07:45:38;25.10;;;15.73;;
17141;SDS011;32805;53.556;9.944;2022-10-31T07:48:24;23.98;;;15.85;;
17141;SDS011;32805;53.556;9.944;2022-10-31T07:51:11;29.77;;;15.27;;
17141;SDS011;32805;53.556;9.944;2022-10-31T07:53:58;22.27;;;13.50;;
17141;SDS011;32805;53.556;9.944;2022-10-31T07:56:30;24.25;;;14.50;;
17141;SDS011;32805;53.556;9.944;2022-10-31T07:58:58;19.98;;;13.07;;
17141;SDS011;32805;53.556;9.944;2022-10-31T08:01:27;22.65;;;13.00;;
17141;SDS011;32805;53.556;9.944;2022-10-31T08:04:15;18.27;;;11.65;;
17141;SDS011;32805;53.556;9.944;2022-10-31T08:07:02;28.05;;;12.68;;
17141;SDS011;32805;53.556;9.944;2022-10-31T08:09:33;34.60;;;14.73;;
17141;SDS011;32805;53.556;9.944;2022-10-31T08:12:07;21.15;;;13.60;;
17141;SDS011;32805;53.556;9.944;2022-10-31T08:14:36;28.42;;;14.57;;
17141;SDS011;32805;53.556;9.944;2022-10-31T08:17:05;25.65;;;14.23;;
17141;SDS011;32805;53.556;9.944;2022-10-31T08:19:42;25.92;;;16.23;;
17141;SDS011;32805;53.556;9.944;2022-10-31T08:22:13;28.13;;;16.27;;
17141;SDS011;32805;53.556;9.944;2022-10-31T08:24:40;23.83;;;16.00;;
17141;SDS011;32805;53.556;9.944;2022-10-31T08:27:09;25.88;;;15.77;;
17141;SDS011;32805;53.556;9.944;2022-10-31T08:29:38;18.85;;;14.00;;
17141;SDS011;32805;53.556;9.944;2022-10-31T08:32:07;30.58;;;18.17;;
17141;SDS011;32805;53.556;9.944;2022-10-31T08:34:54;26.25;;;16.98;;
17141;SDS011;32805;53.556;9.944;2022-10-31T08:37:40;24.73;;;14.48;;
17141;SDS011;32805;53.556;9.944;2022-10-31T08:40:09;20.67;;;12.93;;
17141;SDS011;32805;53.556;9.944;2022-10-31T08:42:39;16.65;;;11.38;;
17141;SDS011;32805;53.556;9.944;2022-10-31T08:45:07;17.48;;;12.90;;
17141;SDS011;32805;53.556;9.944;2022-10-31T08:47:37;21.08;;;14.57;;
17141;SDS011;32805;53.556;9.944;2022-10-31T08:50:06;23.58;;;16.25;;
17141;SDS011;32805;53.556;9.944;2022-10-31T08:52:34;22.63;;;16.13;;
17141;SDS011;32805;53.556;9.944;2022-10-31T08:55:22;25.08;;;14.95;;
17141;SDS011;32805;53.556;9.944;2022-10-31T08:58:16;24.92;;;15.82;;
17141;SDS011;32805;53.556;9.944;2022-10-31T09:00:53;17.63;;;12.00;;
17141;SDS011;32805;53.556;9.944;2022-10-31T09:03:24;16.25;;;12.85;;
17141;SDS011;32805;53.556;9.944;2022-10-31T09:05:54;18.13;;;12.38;;
17141;SDS011;32805;53.556;9.944;2022-10-31T09:08:23;21.05;;;14.93;;
17141;SDS011;32805;53.556;9.944;2022-10-31T09:10:51;16.83;;;12.27;;
17141;SDS011;32805;53.556;9.944;2022-10-31T09:13:38;20.08;;;12.80;;
17141;SDS011;32805;53.556;9.944;2022-10-31T09:16:29;18.27;;;13.63;;
17141;SDS011;32805;53.556;9.944;2022-10-31T09:18:58;14.25;;;11.13;;
17141;SDS011;32805;53.556;9.944;2022-10-31T09:21:26;15.27;;;11.43;;
17141;SDS011;32805;53.556;9.944;2022-10-31T09:23:57;17.17;;;11.88;;
17141;SDS011;32805;53.556;9.944;2022-10-31T09:26:25;22.40;;;14.25;;
17141;SDS011;32805;53.556;9.944;2022-10-31T09:28:55;21.33;;;14.43;;
17141;SDS011;32805;53.556;9.944;2022-10-31T09:31:24;21.70;;;15.25;;
17141;SDS011;32805;53.556;9.944;2022-10-31T09:33:52;27.08;;;17.45;;
17141;SDS011;32805;53.556;9.944;2022-10-31T09:36:42;28.70;;;17.92;;
17141;SDS011;32805;53.556;9.944;2022-10-31T09:39:16;26.52;;;14.80;;
17141;SDS011;32805;53.556;9.944;2022-10-31T09:41:50;20.05;;;13.73;;
17141;SDS011;32805;53.556;9.944;2022-10-31T09:44:30;28.17;;;15.95;;
17141;SDS011;32805;53.556;9.944;2022-10-31T09:47:09;25.92;;;14.73;;
17141;SDS011;32805;53.556;9.944;2022-10-31T09:50:00;29.13;;;19.08;;
17141;SDS011;32805;53.556;9.944;2022-10-31T09:52:41;22.80;;;14.15;;
17141;SDS011;32805;53.556;9.944;2022-10-31T09:55:16;23.67;;;13.48;;
17141;SDS011;32805;53.556;9.944;2022-10-31T09:57:48;25.60;;;13.35;;
17141;SDS011;32805;53.556;9.944;2022-10-31T10:00:19;29.60;;;17.13;;
17141;SDS011;32805;53.556;9.944;2022-10-31T10:02:49;29.00;;;17.98;;
17141;SDS011;32805;53.556;9.944;2022-10-31T10:05:21;32.83;;;18.52;;
17141;SDS011;32805;53.556;9.944;2022-10-31T10:08:01;27.48;;;16.92;;
17141;SDS011;32805;53.556;9.944;2022-10-31T10:11:05;32.00;;;18.33;;
17141;SDS011;32805;53.556;9.944;2022-10-31T10:13:57;27.17;;;17.48;;
17141;SDS011;32805;53.556;9.944;2022-10-31T10:16:35;31.65;;;18.65;;
17141;SDS011;32805;53.556;9.944;2022-10-31T10:19:18;27.70;;;16.63;;
17141;SDS011;32805;53.556;9.944;2022-10-31T10:22:03;27.40;;;14.55;;
17141;SDS011;32805;53.556;9.944;2022-10-31T10:24:43;30.85;;;15.02;;
17141;SDS011;32805;53.556;9.944;2022-10-31T10:27:24;29.00;;;17.52;;
17141;SDS011;32805;53.556;9.944;2022-10-31T10:30:11;20.63;;;13.07;;
17141;SDS011;32805;53.556;9.944;2022-10-31T10:32:43;23.60;;;14.25;;
17141;SDS011;32805;53.556;9.944;2022-10-31T10:35:19;26.02;;;15.95;;
17141;SDS011;32805;53.556;9.944;2022-10-31T10:37:52;31.83;;;19.45;;
17141;SDS011;32805;53.556;9.944;2022-10-31T10:40:27;27.98;;;17.58;;
17141;SDS011;32805;53.556;9.944;2022-10-31T10:42:58;34.67;;;18.35;;
17141;SDS011;32805;53.556;9.944;2022-10-31T10:45:47;32.42;;;19.10;;
17141;SDS011;32805;53.556;9.944;2022-10-31T10:48:40;27.38;;;15.80;;
17141;SDS011;32805;53.556;9.944;2022-10-31T10:51:17;31.23;;;18.20;;
17141;SDS011;32805;53.556;9.944;2022-10-31T10:54:11;26.48;;;15.00;;
17141;SDS011;32805;53.556;9.944;2022-10-31T10:56:51;26.63;;;17.65;;
17141;SDS011;32805;53.556;9.944;2022-10-31T10:59:27;30.55;;;17.08;;
17141;SDS011;32805;53.556;9.944;2022-10-31T11:01:56;25.27;;;14.93;;
17141;SDS011;32805;53.556;9.944;2022-10-31T11:04:28;23.05;;;13.75;;
17141;SDS011;32805;53.556;9.944;2022-10-31T11:07:00;29.17;;;14.88;;
17141;SDS011;32805;53.556;9.944;2022-10-31T11:09:30;25.42;;;17.48;;
17141;SDS011;32805;53.556;9.944;2022-10-31T11:12:00;31.35;;;17.92;;
17141;SDS011;32805;53.556;9.944;2022-10-31T11:14:35;23.33;;;13.85;;
17141;SDS011;32805;53.556;9.944;2022-10-31T11:17:11;24.83;;;15.07;;
17141;SDS011;32805;53.556;9.944;2022-10-31T11:19:48;25.33;;;16.20;;
17141;SDS011;32805;53.556;9.944;2022-10-31T11:22:26;23.92;;;14.43;;
17141;SDS011;32805;53.556;9.944;2022-10-31T11:24:55;28.38;;;18.08;;
17141;SDS011;32805;53.556;9.944;2022-10-31T11:27:25;25.85;;;16.63;;
17141;SDS011;32805;53.556;9.944;2022-10-31T11:30:03;29.00;;;18.35;;
17141;SDS011;32805;53.556;9.944;2022-10-31T11:32:32;26.65;;;17.13;;
17141;SDS011;32805;53.556;9.944;2022-10-31T11:35:00;28.80;;;17.17;;
17141;SDS011;32805;53.556;9.944;2022-10-31T11:37:31;26.60;;;16.92;;
17141;SDS011;32805;53.556;9.944;2022-10-31T11:40:02;26.98;;;16.02;;
17141;SDS011;32805;53.556;9.944;2022-10-31T11:42:37;20.65;;;15.23;;
17141;SDS011;32805;53.556;9.944;2022-10-31T11:45:12;24.40;;;14.68;;
17141;SDS011;32805;53.556;9.944;2022-10-31T11:47:42;24.45;;;13.90;;
17141;SDS011;32805;53.556;9.944;2022-10-31T11:50:18;19.50;;;13.50;;
17141;SDS011;32805;53.556;9.944;2022-10-31T11:52:49;25.92;;;16.23;;
17141;SDS011;32805;53.556;9.944;2022-10-31T11:55:29;18.80;;;14.10;;
17141;SDS011;32805;53.556;9.944;2022-10-31T11:58:00;23.00;;;15.40;;
17141;SDS011;32805;53.556;9.944;2022-10-31T12:00:28;18.90;;;13.80;;
17141;SDS011;32805;53.556;9.944;2022-10-31T12:03:04;19.98;;;14.40;;
17141;SDS011;32805;53.556;9.944;2022-10-31T12:05:39;22.80;;;14.88;;
17141;SDS011;32805;53.556;9.944;2022-10-31T12:08:11;22.35;;;13.50;;
17141;SDS011;32805;53.556;9.944;2022-10-31T12:10:42;24.15;;;14.93;;
17141;SDS011;32805;53.556;9.944;2022-10-31T12:13:27;22.65;;;14.73;;
17141;SDS011;32805;53.556;9.944;2022-10-31T12:16:02;23.48;;;14.60;;
17141;SDS011;32805;53.556;9.944;2022-10-31T12:21:32;21.50;;;14.57;;
17141;SDS011;32805;53.556;9.944;2022-10-31T12:24:12;20.73;;;15.55;;
17141;SDS011;32805;53.556;9.944;2022-10-31T12:26:51;20.00;;;13.43;;
17141;SDS011;32805;53.556;9.944;2022-10-31T12:29:33;18.00;;;12.45;;
17141;SDS011;32805;53.556;9.944;2022-10-31T12:32:20;21.60;;;14.60;;
17141;SDS011;32805;53.556;9.944;2022-10-31T12:35:03;22.80;;;14.70;;
17141;SDS011;32805;53.556;9.944;2022-10-31T12:37:44;21.20;;;14.75;;
17141;SDS011;32805;53.556;9.944;2022-10-31T12:43:29;27.83;;;17.48;;
17141;SDS011;32805;53.556;9.944;2022-10-31T12:46:04;22.58;;;13.93;;
17141;SDS011;32805;53.556;9.944;2022-10-31T12:48:45;21.60;;;14.98;;
17141;SDS011;32805;53.556;9.944;2022-10-31T12:51:25;21.92;;;14.43;;
17141;SDS011;32805;53.556;9.944;2022-10-31T12:54:05;19.98;;;12.45;;
17141;SDS011;32805;53.556;9.944;2022-10-31T12:56:47;22.08;;;13.60;;
17141;SDS011;32805;53.556;9.944;2022-10-31T12:59:21;22.95;;;14.85;;
17141;SDS011;32805;53.556;9.944;2022-10-31T13:01:57;23.33;;;14.38;;
17141;SDS011;32805;53.556;9.944;2022-10-31T13:04:34;21.48;;;13.85;;
17141;SDS011;32805;53.556;9.944;2022-10-31T13:07:08;19.10;;;12.85;;
17141;SDS011;32805;53.556;9.944;2022-10-31T13:09:42;19.90;;;13.75;;
17141;SDS011;32805;53.556;9.944;2022-10-31T13:12:17;20.85;;;13.45;;
17141;SDS011;32805;53.556;9.944;2022-10-31T13:14:47;18.00;;;12.80;;
17141;SDS011;32805;53.556;9.944;2022-10-31T13:17:20;16.33;;;11.18;;
17141;SDS011;32805;53.556;9.944;2022-10-31T13:19:53;16.75;;;12.00;;
17141;SDS011;32805;53.556;9.944;2022-10-31T13:22:30;20.38;;;12.38;;
17141;SDS011;32805;53.556;9.944;2022-10-31T13:25:02;19.60;;;12.00;;
17141;SDS011;32805;53.556;9.944;2022-10-31T13:27:41;18.00;;;11.80;;
17141;SDS011;32805;53.556;9.944;2022-10-31T13:30:12;16.23;;;10.85;;
17141;SDS011;32805;53.556;9.944;2022-10-31T13:32:45;16.33;;;11.60;;
17141;SDS011;32805;53.556;9.944;2022-10-31T13:35:17;19.23;;;10.63;;
17141;SDS011;32805;53.556;9.944;2022-10-31T13:37:50;15.38;;;10.32;;
17141;SDS011;32805;53.556;9.944;2022-10-31T13:40:29;13.18;;;9.52;;
17141;SDS011;32805;53.556;9.944;2022-10-31T13:43:05;15.10;;;9.98;;
17141;SDS011;32805;53.556;9.944;2022-10-31T13:46:00;15.00;;;10.65;;
17141;SDS011;32805;53.556;9.944;2022-10-31T13:57:57;13.18;;;9.93;;
17141;SDS011;32805;53.556;9.944;2022-10-31T14:00:26;15.77;;;9.85;;
17141;SDS011;32805;53.556;9.944;2022-10-31T14:02:55;14.15;;;10.45;;
17141;SDS011;32805;53.556;9.944;2022-10-31T14:05:25;14.15;;;10.23;;
17141;SDS011;32805;53.556;9.944;2022-10-31T14:07:54;13.40;;;10.57;;
17141;SDS011;32805;53.556;9.944;2022-10-31T14:10:25;14.02;;;10.32;;
17141;SDS011;32805;53.556;9.944;2022-10-31T14:13:02;14.65;;;9.55;;
17141;SDS011;32805;53.556;9.944;2022-10-31T14:15:34;16.42;;;11.02;;
17141;SDS011;32805;53.556;9.944;2022-10-31T14:18:05;14.27;;;8.98;;
17141;SDS011;32805;53.556;9.944;2022-10-31T14:20:44;11.73;;;9.18;;
17141;SDS011;32805;53.556;9.944;2022-10-31T14:26:17;11.52;;;8.40;;
17141;SDS011;32805;53.556;9.944;2022-10-31T14:28:49;16.42;;;9.63;;
17141;SDS011;32805;53.556;9.944;2022-10-31T14:31:27;14.20;;;8.68;;
17141;SDS011;32805;53.556;9.944;2022-10-31T14:33:59;13.70;;;9.32;;
17141;SDS011;32805;53.556;9.944;2022-10-31T14:36:30;12.18;;;8.20;;
17141;SDS011;32805;53.556;9.944;2022-10-31T14:39:10;15.80;;;8.82;;
17141;SDS011;32805;53.556;9.944;2022-10-31T14:41:48;15.30;;;9.02;;
17141;SDS011;32805;53.556;9.944;2022-10-31T14:44:41;12.60;;;8.32;;
17141;SDS011;32805;53.556;9.944;2022-10-31T14:47:25;11.88;;;9.73;;
17141;SDS011;32805;53.556;9.944;2022-10-31T14:50:05;18.02;;;10.73;;
17141;SDS011;32805;53.556;9.944;2022-10-31T14:52:49;10.55;;;8.90;;
17141;SDS011;32805;53.556;9.944;2022-10-31T14:55:20;13.40;;;8.77;;
17141;SDS011;32805;53.556;9.944;2022-10-31T14:57:50;15.63;;;9.60;;
17141;SDS011;32805;53.556;9.944;2022-10-31T15:00:23;14.82;;;9.85;;
17141;SDS011;32805;53.556;9.944;2022-10-31T15:02:58;17.60;;;9.25;;
17141;SDS011;32805;53.556;9.944;2022-10-31T15:05:34;14.55;;;9.35;;
17141;SDS011;32805;53.556;9.944;2022-10-31T15:08:12;15.45;;;10.27;;
17141;SDS011;32805;53.556;9.944;2022-10-31T15:10:52;15.90;;;9.18;;
17141;SDS011;32805;53.556;9.944;2022-10-31T15:13:20;11.73;;;8.48;;
17141;SDS011;32805;53.556;9.944;2022-10-31T15:15:51;11.43;;;8.63;;
17141;SDS011;32805;53.556;9.944;2022-10-31T15:18:24;12.65;;;9.48;;
17141;SDS011;32805;53.556;9.944;2022-10-31T15:20:53;13.40;;;8.80;;
17141;SDS011;32805;53.556;9.944;2022-10-31T15:23:23;15.80;;;10.57;;